Cranham, United Kingdom
Current Conditions -  °F | °C
As of 8:50 AM on Wednesday 22 Oct 2014 (Local Time) from EGLC Reporting Station
Clear Clear  
Wind Chill: 43°   Ceiling: Unl
Heat Index: 48°   Visibility: 6mi
Dew Point: 41°   Wind: 13mph
Humidity: 76%   Direction: 260°W
Pressure: 30.27"   Gusts: NA
Location:  51.57°N, 0.27°E
Report Text: EGLC 220750Z 26011KT CAVOK 09/05 Q1025
Loading
Personal Weather Stations






























Interactive Weather Map New forecast layout! Learn more

10-Day Weather Forecast

Advertisements
Track Severe Weather on mobile